Time;durP1;ratioP1;P1;durP2;ratioP2;P2;SDS_P1;SDS_P2;PMS_P1;PMS_P2;Temp;Humidity;BMP_temperature;BMP_pressure;BME280_temperature;BME280_humidity;BME280_pressure;Samples;Min_cycle;Max_cycle;Signal;HPM_P1;HPM_P2
2023/04/25 00:02:24;;;;;;;2.70;2.20;;;6.80;99.90;;;;;;4982034;28;20042;-79
2023/04/25 00:04:50;;;;;;;3.33;2.20;;;6.80;99.90;;;;;;4982096;28;20111;-78
2023/04/25 00:07:16;;;;;;;5.93;2.20;;;6.80;99.90;;;;;;4983285;28;20027;-79
2023/04/25 00:09:42;;;;;;;5.90;2.53;;;6.80;99.90;;;;;;4981799;28;20038;-78
2023/04/25 00:12:08;;;;;;;4.20;2.57;;;6.80;99.90;;;;;;4982704;28;20130;-78
2023/04/25 00:14:33;;;;;;;5.13;2.23;;;6.90;99.90;;;;;;4982355;28;20029;-78
2023/04/25 00:17:00;;;;;;;3.50;2.33;;;6.90;99.90;;;;;;4982686;28;20038;-79
2023/04/25 00:19:28;;;;;;;5.20;2.53;;;6.90;99.90;;;;;;4981674;28;20026;-79
2023/04/25 00:21:57;;;;;;;5.00;2.43;;;6.90;99.90;;;;;;4982845;28;20098;-78
2023/04/25 00:24:22;;;;;;;5.07;2.50;;;6.90;99.90;;;;;;4982125;28;20035;-78
2023/04/25 00:26:48;;;;;;;4.17;2.37;;;6.90;99.90;;;;;;4982473;28;20088;-78
2023/04/25 00:29:14;;;;;;;4.10;2.30;;;7.00;99.90;;;;;;4982208;28;20035;-78
2023/04/25 00:31:39;;;;;;;8.67;3.20;;;7.00;99.90;;;;;;4981534;28;20093;-79
2023/04/25 00:34:07;;;;;;;4.30;2.13;;;7.00;99.90;;;;;;4981668;28;21216;-78
2023/04/25 00:36:33;;;;;;;3.90;2.47;;;7.00;99.90;;;;;;4980725;28;21442;-78
2023/04/25 00:38:59;;;;;;;3.63;2.10;;;7.00;99.90;;;;;;4983174;28;20065;-79
2023/04/25 00:41:26;;;;;;;4.83;2.20;;;7.00;99.90;;;;;;4984789;28;20023;-78
2023/04/25 00:43:53;;;;;;;3.83;2.10;;;6.90;99.90;;;;;;4986202;28;20083;-78
2023/04/25 00:46:19;;;;;;;4.33;2.40;;;6.90;99.90;;;;;;4985258;28;20045;-78
2023/04/25 00:48:44;;;;;;;2.93;2.10;;;6.90;99.90;;;;;;4984416;28;20113;-79
2023/04/25 00:51:13;;;;;;;5.00;2.50;;;6.80;99.90;;;;;;4982054;28;20043;-78
2023/04/25 00:53:40;;;;;;;6.13;2.57;;;6.80;99.90;;;;;;4982985;28;20026;-79
2023/04/25 00:56:06;;;;;;;3.90;2.40;;;6.70;99.90;;;;;;4982257;28;20046;-78
2023/04/25 00:58:31;;;;;;;4.60;2.30;;;6.70;99.90;;;;;;4982793;28;20026;-79
2023/04/25 01:00:57;;;;;;;4.57;2.40;;;6.60;99.90;;;;;;4981525;28;21490;-79
2023/04/25 01:03:24;;;;;;;3.30;2.30;;;6.60;99.90;;;;;;4982179;28;20527;-78
2023/04/25 01:05:50;;;;;;;7.37;2.50;;;6.50;99.90;;;;;;4981574;28;20722;-78
2023/04/25 01:08:16;;;;;;;5.40;2.83;;;6.50;99.90;;;;;;4981100;28;20045;-78
2023/04/25 01:10:42;;;;;;;3.20;2.60;;;6.50;99.90;;;;;;4980705;28;20042;-78
2023/04/25 01:13:07;;;;;;;3.97;2.27;;;6.40;99.90;;;;;;4980199;28;20034;-79
2023/04/25 01:15:35;;;;;;;4.97;2.37;;;6.40;99.90;;;;;;4981973;28;20534;-79
2023/04/25 01:18:01;;;;;;;5.70;2.33;;;6.40;99.90;;;;;;5079156;23;20054;-89
2023/04/25 01:20:29;;;;;;;4.13;2.30;;;6.30;99.90;;;;;;4985201;28;20140;-88
2023/04/25 01:22:55;;;;;;;4.00;2.70;;;6.30;99.90;;;;;;4986678;28;20487;-88
2023/04/25 01:25:22;;;;;;;5.27;2.90;;;6.20;99.90;;;;;;4987836;28;20041;-88
2023/04/25 01:27:48;;;;;;;4.33;2.50;;;6.20;99.90;;;;;;4987875;28;20109;-88
2023/04/25 01:30:14;;;;;;;4.33;2.70;;;6.10;99.90;;;;;;4987090;28;20026;-88
2023/04/25 01:32:41;;;;;;;4.17;2.47;;;6.10;99.90;;;;;;4987147;28;20169;-86
2023/04/25 01:35:11;;;;;;;7.53;2.77;;;6.10;99.90;;;;;;4998645;28;20026;-86
2023/04/25 01:37:41;;;;;;;3.03;2.20;;;6.10;99.90;;;;;;5000438;28;20117;-86
2023/04/25 01:40:09;;;;;;;4.57;2.60;;;6.00;99.90;;;;;;4987109;28;20054;-86
2023/04/25 01:42:39;;;;;;;4.37;2.93;;;6.00;99.90;;;;;;4987220;28;20036;-89
2023/04/25 01:45:06;;;;;;;7.63;2.63;;;5.90;99.90;;;;;;4987744;28;20510;-86
2023/04/25 01:47:32;;;;;;;5.97;2.90;;;5.90;99.90;;;;;;4988000;28;20061;-86
2023/04/25 01:49:58;;;;;;;4.77;2.50;;;5.90;99.90;;;;;;4988432;28;20093;-85
2023/04/25 01:52:23;;;;;;;6.53;2.80;;;5.80;99.90;;;;;;4988800;28;20038;-86
2023/04/25 01:54:50;;;;;;;4.03;2.70;;;5.80;99.90;;;;;;4989478;28;20053;-86
2023/04/25 01:57:16;;;;;;;5.70;2.70;;;5.70;99.90;;;;;;4988053;28;20077;-86
2023/04/25 01:59:42;;;;;;;3.70;2.67;;;5.70;99.90;;;;;;4986793;28;20563;-86
2023/04/25 02:02:08;;;;;;;4.50;2.77;;;5.70;99.90;;;;;;4987244;28;20166;-87
2023/04/25 02:04:33;;;;;;;3.77;2.60;;;5.70;99.90;;;;;;4988081;28;20029;-86
2023/04/25 02:06:59;;;;;;;5.93;3.10;;;5.70;99.90;;;;;;4987202;28;20136;-86
2023/04/25 02:09:24;;;;;;;5.97;2.60;;;5.70;99.90;;;;;;4987646;28;20280;-86
2023/04/25 02:11:50;;;;;;;7.00;2.70;;;5.70;99.90;;;;;;4988123;28;20037;-86
2023/04/25 02:14:16;;;;;;;5.37;2.43;;;5.60;99.90;;;;;;4988779;28;20031;-85
2023/04/25 02:16:43;;;;;;;4.43;2.73;;;5.70;99.90;;;;;;4988797;28;20061;-86
2023/04/25 02:19:10;;;;;;;3.23;2.43;;;5.60;99.90;;;;;;4987092;28;20153;-87
2023/04/25 02:21:35;;;;;;;5.43;2.83;;;5.70;99.90;;;;;;4987293;28;20082;-85
2023/04/25 02:24:01;;;;;;;5.00;2.80;;;5.70;99.90;;;;;;4988115;28;20029;-85
2023/04/25 02:26:27;;;;;;;8.87;3.03;;;5.70;99.90;;;;;;4991604;28;20034;-86
2023/04/25 02:28:52;;;;;;;4.10;2.67;;;5.80;99.90;;;;;;4992871;28;20085;-85
2023/04/25 02:31:18;;;;;;;6.73;2.83;;;5.80;99.90;;;;;;4992124;28;20414;-85
2023/04/25 02:33:44;;;;;;;5.03;2.77;;;5.90;99.90;;;;;;4990819;28;20065;-85
2023/04/25 02:36:10;;;;;;;5.40;3.00;;;5.90;99.90;;;;;;4991245;28;20046;-86
2023/04/25 02:38:35;;;;;;;5.97;3.33;;;5.90;99.90;;;;;;4991642;28;20144;-86
2023/04/25 02:41:01;;;;;;;6.23;2.87;;;5.90;99.90;;;;;;4990258;28;20072;-87
2023/04/25 02:43:26;;;;;;;4.73;2.97;;;5.90;99.90;;;;;;4991544;28;20060;-85
2023/04/25 02:45:52;;;;;;;5.60;3.87;;;5.90;99.90;;;;;;4991584;28;20030;-86
2023/04/25 02:48:18;;;;;;;8.23;3.27;;;5.90;99.90;;;;;;4992503;28;20026;-87
2023/04/25 02:50:43;;;;;;;7.13;3.50;;;6.00;99.90;;;;;;4990947;28;20034;-86
2023/04/25 02:53:09;;;;;;;8.13;3.70;;;5.90;99.90;;;;;;4990187;28;20028;-87
2023/04/25 02:55:34;;;;;;;7.83;2.93;;;6.00;99.90;;;;;;4990805;28;20129;-87
2023/04/25 02:58:00;;;;;;;3.83;2.93;;;6.00;99.90;;;;;;4990872;28;20525;-86
2023/04/25 03:00:25;;;;;;;4.03;2.70;;;6.00;99.90;;;;;;4989817;28;20103;-86
2023/04/25 03:02:51;;;;;;;4.80;2.90;;;6.00;99.90;;;;;;4990462;28;20049;-86
2023/04/25 03:05:17;;;;;;;5.53;2.70;;;6.00;99.90;;;;;;4990972;28;20030;-85
2023/04/25 03:07:43;;;;;;;4.03;2.63;;;6.20;99.90;;;;;;4992594;28;20026;-88
2023/04/25 03:10:10;;;;;;;4.43;2.73;;;6.20;99.90;;;;;;4995355;28;20140;-84
2023/04/25 03:12:36;;;;;;;3.50;2.13;;;6.30;99.90;;;;;;5002615;28;20093;-87
2023/04/25 03:15:02;;;;;;;5.83;2.87;;;6.40;99.90;;;;;;5003374;28;20061;-85
2023/04/25 03:17:28;;;;;;;5.63;2.47;;;6.40;99.90;;;;;;4996928;28;20073;-85
2023/04/25 03:19:53;;;;;;;4.70;2.30;;;6.40;99.90;;;;;;4991468;28;20621;-85
2023/04/25 03:22:19;;;;;;;5.27;2.70;;;6.40;99.90;;;;;;4993058;28;20482;-85
2023/04/25 03:24:44;;;;;;;5.70;2.70;;;6.40;99.90;;;;;;4991862;28;20398;-87
2023/04/25 03:27:10;;;;;;;4.63;2.43;;;6.30;99.90;;;;;;4993314;28;20041;-85
2023/04/25 03:29:36;;;;;;;4.13;2.20;;;6.30;99.90;;;;;;4992404;28;20018;-86
2023/04/25 03:32:01;;;;;;;4.13;2.20;;;6.30;99.90;;;;;;4993538;28;20049;-86
2023/04/25 03:34:27;;;;;;;5.33;2.30;;;6.20;99.90;;;;;;4993738;28;20034;-85
2023/04/25 03:36:53;;;;;;;3.37;2.20;;;6.20;99.90;;;;;;4991424;28;20038;-85
2023/04/25 03:39:18;;;;;;;4.73;2.40;;;6.10;99.90;;;;;;4990264;28;20085;-87
2023/04/25 03:41:44;;;;;;;3.33;2.20;;;6.10;99.90;;;;;;4992486;28;20038;-86
2023/04/25 03:44:09;;;;;;;4.13;2.30;;;6.00;99.90;;;;;;4993479;28;20030;-85
2023/04/25 03:46:35;;;;;;;3.67;2.30;;;6.10;99.90;;;;;;4992191;28;20118;-85
2023/04/25 03:49:01;;;;;;;4.80;2.37;;;6.00;99.90;;;;;;4990803;28;20065;-85
2023/04/25 03:51:26;;;;;;;5.77;2.07;;;6.00;99.90;;;;;;4992172;28;20403;-85
2023/04/25 03:53:52;;;;;;;5.60;2.23;;;6.00;99.90;;;;;;4993672;28;20147;-85
2023/04/25 03:56:18;;;;;;;5.97;2.50;;;6.00;99.90;;;;;;4993585;28;20076;-85
2023/04/25 03:58:44;;;;;;;7.37;2.20;;;6.00;99.90;;;;;;4992492;28;20093;-85
2023/04/25 04:01:10;;;;;;;5.97;2.10;;;6.00;99.90;;;;;;4992325;28;20747;-85
2023/04/25 04:03:36;;;;;;;5.43;2.10;;;6.00;99.90;;;;;;4993351;28;20061;-85
2023/04/25 04:06:05;;;;;;;4.00;1.80;;;6.00;99.90;;;;;;4992311;28;20030;-85
2023/04/25 04:08:32;;;;;;;6.27;2.40;;;6.00;99.90;;;;;;4991207;28;20030;-85
2023/04/25 04:10:58;;;;;;;5.73;1.97;;;6.00;99.90;;;;;;4992709;28;20495;-85
2023/04/25 04:13:26;;;;;;;4.03;2.00;;;6.00;99.90;;;;;;4993933;28;21330;-85
2023/04/25 04:15:52;;;;;;;8.87;2.30;;;6.00;99.90;;;;;;4992920;28;20038;-85
2023/04/25 04:18:17;;;;;;;2.87;2.00;;;6.00;99.90;;;;;;4993183;28;20037;-85
2023/04/25 04:20:43;;;;;;;4.47;2.17;;;6.00;99.90;;;;;;4992460;28;20040;-85
2023/04/25 04:23:08;;;;;;;2.47;2.10;;;6.00;99.90;;;;;;4993509;28;20038;-85
2023/04/25 04:25:34;;;;;;;3.27;2.20;;;6.00;99.90;;;;;;4993603;28;20026;-85
2023/04/25 04:28:00;;;;;;;3.80;2.10;;;6.00;99.90;;;;;;4992994;28;20393;-84
2023/04/25 04:30:29;;;;;;;4.40;2.20;;;6.10;99.90;;;;;;4992408;28;20098;-85
2023/04/25 04:32:55;;;;;;;3.50;1.93;;;6.10;99.90;;;;;;4993128;28;20035;-88
2023/04/25 04:35:21;;;;;;;5.63;1.93;;;6.10;99.90;;;;;;4993859;28;20030;-85
2023/04/25 04:37:48;;;;;;;4.30;2.10;;;6.10;99.90;;;;;;4997024;28;20116;-87
2023/04/25 04:40:17;;;;;;;4.93;2.20;;;6.10;99.90;;;;;;4981063;28;20426;-84
2023/04/25 04:42:45;;;;;;;3.07;1.97;;;6.10;99.90;;;;;;4995620;28;20026;-84
2023/04/25 04:45:12;;;;;;;5.93;2.30;;;6.20;99.90;;;;;;4993407;28;20101;-85
2023/04/25 04:47:39;;;;;;;3.53;2.20;;;6.20;99.90;;;;;;4993933;28;20029;-86
2023/04/25 04:50:08;;;;;;;5.70;2.17;;;6.20;99.90;;;;;;4995129;28;20094;-86
2023/04/25 04:52:34;;;;;;;6.03;2.90;;;6.20;99.90;;;;;;4996696;28;20050;-85
2023/04/25 04:54:59;;;;;;;4.93;2.20;;;6.20;99.90;;;;;;4989321;28;20649;-88
2023/04/25 04:57:25;;;;;;;5.30;2.37;;;6.20;99.90;;;;;;4986254;28;20057;-84
2023/04/25 04:59:51;;;;;;;5.07;2.53;;;6.20;99.90;;;;;;4991705;28;20034;-85
2023/04/25 05:02:16;;;;;;;5.23;2.80;;;6.20;99.90;;;;;;4990650;28;20029;-87
2023/04/25 05:04:42;;;;;;;4.33;2.10;;;6.20;99.90;;;;;;4991927;28;21378;-85
2023/04/25 05:07:07;;;;;;;5.60;2.23;;;6.30;99.90;;;;;;4990018;28;20037;-85
2023/04/25 05:09:34;;;;;;;2.97;2.27;;;6.30;99.90;;;;;;4990056;28;20026;-88
2023/04/25 05:12:00;;;;;;;5.67;2.83;;;6.30;99.90;;;;;;4989851;28;20045;-85
2023/04/25 05:14:26;;;;;;;6.60;2.73;;;6.30;99.90;;;;;;4989815;28;20390;-86
2023/04/25 05:16:52;;;;;;;6.10;2.37;;;6.30;99.90;;;;;;4988579;28;20045;-86
2023/04/25 05:19:18;;;;;;;5.07;3.00;;;6.30;99.90;;;;;;4984797;28;20026;-86
2023/04/25 05:21:43;;;;;;;4.00;2.90;;;6.30;99.90;;;;;;4986270;28;20084;-85
2023/04/25 05:24:09;;;;;;;5.30;2.63;;;6.30;99.90;;;;;;4987589;28;20033;-86
2023/04/25 05:26:34;;;;;;;8.10;3.10;;;6.30;99.90;;;;;;4986964;28;20137;-87
2023/04/25 05:29:00;;;;;;;6.37;3.07;;;6.30;99.90;;;;;;4987813;28;21688;-86
2023/04/25 05:31:26;;;;;;;7.33;2.73;;;6.30;99.90;;;;;;4986253;28;20038;-85
2023/04/25 05:33:52;;;;;;;6.67;3.03;;;6.30;99.90;;;;;;4987756;28;20035;-88
2023/04/25 05:36:19;;;;;;;6.07;3.10;;;6.30;99.90;;;;;;4987518;28;20987;-88
2023/04/25 05:38:44;;;;;;;5.40;3.57;;;6.40;99.90;;;;;;4987368;28;20023;-85
2023/04/25 05:41:10;;;;;;;7.47;3.27;;;6.40;99.90;;;;;;4982973;28;20045;-85
2023/04/25 05:43:36;;;;;;;5.73;3.23;;;6.50;99.90;;;;;;4984504;28;20057;-87
2023/04/25 05:46:01;;;;;;;6.47;3.10;;;6.60;99.90;;;;;;4984129;28;21541;-89
2023/04/25 05:48:27;;;;;;;6.77;3.33;;;6.60;99.90;;;;;;4984040;28;20038;-85
2023/04/25 05:50:52;;;;;;;5.17;3.00;;;6.60;99.90;;;;;;4984171;28;20034;-88
2023/04/25 05:53:19;;;;;;;6.80;2.80;;;6.70;99.90;;;;;;4983649;28;20125;-86
2023/04/25 05:55:45;;;;;;;7.47;2.90;;;6.80;99.90;;;;;;4986688;28;20034;-90
2023/04/25 05:58:13;;;;;;;5.00;3.07;;;6.80;99.90;;;;;;4988071;28;21416;-89
2023/04/25 06:00:38;;;;;;;4.57;2.60;;;6.80;99.90;;;;;;4990286;28;20188;-85
2023/04/25 06:03:04;;;;;;;5.53;2.70;;;6.70;99.90;;;;;;4991402;28;21602;-86
2023/04/25 06:05:30;;;;;;;4.63;2.60;;;6.70;99.90;;;;;;4992246;28;20406;-86
2023/04/25 06:07:55;;;;;;;8.63;2.43;;;6.70;99.90;;;;;;4993921;28;20038;-85
2023/04/25 06:10:22;;;;;;;5.97;3.23;;;6.60;99.90;;;;;;4990500;28;20091;-88
2023/04/25 06:12:49;;;;;;;4.87;2.47;;;6.50;99.90;;;;;;4990205;28;20042;-84
2023/04/25 06:15:15;;;;;;;3.43;2.43;;;6.50;99.90;;;;;;4992786;28;21377;-90
2023/04/25 06:17:41;;;;;;;4.50;2.90;;;6.50;99.90;;;;;;4991209;28;20041;-88
2023/04/25 06:20:08;;;;;;;4.67;2.97;;;6.40;99.90;;;;;;4992519;28;20038;-84
2023/04/25 06:22:33;;;;;;;5.63;2.60;;;6.30;99.90;;;;;;4991209;28;20038;-88
2023/04/25 06:25:00;;;;;;;4.57;2.70;;;6.30;99.90;;;;;;4993198;28;20057;-87
2023/04/25 06:27:25;;;;;;;4.90;2.70;;;6.30;99.90;;;;;;4996058;28;20033;-89
2023/04/25 06:29:51;;;;;;;4.77;2.47;;;6.30;99.90;;;;;;5005251;28;20034;-87
2023/04/25 06:32:18;;;;;;;4.57;2.63;;;6.30;99.90;;;;;;4993908;28;20151;-84
2023/04/25 06:34:43;;;;;;;5.33;2.70;;;6.40;99.90;;;;;;4995298;28;20026;-84
2023/04/25 06:37:09;;;;;;;5.77;3.07;;;6.60;99.90;;;;;;4993780;28;20029;-88
2023/04/25 06:39:35;;;;;;;6.37;2.97;;;6.90;99.90;;;;;;4993926;28;20093;-87
2023/04/25 06:42:01;;;;;;;5.00;2.80;;;7.10;99.90;;;;;;4993480;28;20448;-85
2023/04/25 06:44:29;;;;;;;7.40;3.23;;;7.40;99.90;;;;;;4995112;28;20023;-88
2023/04/25 06:46:54;;;;;;;5.00;2.77;;;7.70;99.90;;;;;;4992909;28;20038;-85
2023/04/25 06:49:20;;;;;;;5.03;2.50;;;7.80;99.90;;;;;;4990043;28;20763;-87
2023/04/25 06:51:45;;;;;;;7.47;3.20;;;7.90;99.90;;;;;;4990211;28;20474;-89
2023/04/25 06:54:11;;;;;;;5.97;3.00;;;8.10;99.90;;;;;;4990347;28;20500;-88
2023/04/25 06:56:36;;;;;;;5.07;2.33;;;8.10;99.90;;;;;;4990839;28;20172;-86
2023/04/25 06:59:02;;;;;;;4.00;2.47;;;8.10;99.90;;;;;;4990433;28;20094;-88
2023/04/25 07:01:28;;;;;;;4.27;2.40;;;8.20;99.90;;;;;;4990431;28;20025;-86
2023/04/25 07:03:53;;;;;;;5.10;2.37;;;8.20;99.90;;;;;;4987976;28;20085;-87
2023/04/25 07:06:19;;;;;;;4.03;2.13;;;8.10;99.90;;;;;;4989911;28;20052;-89
2023/04/25 07:08:44;;;;;;;6.23;2.43;;;8.20;99.90;;;;;;4991016;28;20044;-88
2023/04/25 07:11:10;;;;;;;3.37;2.10;;;8.20;99.90;;;;;;4988874;28;20668;-86
2023/04/25 07:13:36;;;;;;;7.97;2.40;;;8.10;99.90;;;;;;4989965;28;20034;-85
2023/04/25 07:16:01;;;;;;;5.40;2.50;;;8.10;99.90;;;;;;4990464;28;20033;-88
2023/04/25 07:18:27;;;;;;;4.83;2.10;;;8.20;99.90;;;;;;4991288;28;20125;-88
2023/04/25 07:20:52;;;;;;;9.30;2.20;;;8.30;99.90;;;;;;4993907;28;20026;-86
2023/04/25 07:23:18;;;;;;;3.83;2.20;;;8.40;99.90;;;;;;4995033;28;20041;-89
2023/04/25 07:25:44;;;;;;;4.90;2.23;;;8.50;99.90;;;;;;4997948;28;20789;-86
2023/04/25 07:28:09;;;;;;;6.93;2.23;;;8.50;99.90;;;;;;4996141;28;20052;-85
2023/04/25 07:30:35;;;;;;;7.50;2.60;;;8.60;99.90;;;;;;4991943;28;20058;-88
2023/04/25 07:33:01;;;;;;;5.90;2.37;;;8.80;99.90;;;;;;4995207;28;20042;-87
2023/04/25 07:35:26;;;;;;;4.57;2.43;;;8.80;99.90;;;;;;4994787;28;20026;-87
2023/04/25 07:37:52;;;;;;;5.17;2.93;;;8.80;99.90;;;;;;4992856;28;20057;-87
2023/04/25 07:40:17;;;;;;;4.90;2.27;;;8.90;99.90;;;;;;4992688;28;20035;-85
2023/04/25 07:42:43;;;;;;;4.40;2.63;;;8.90;99.90;;;;;;4994808;28;20033;-87
2023/04/25 07:45:09;;;;;;;8.07;2.57;;;9.00;99.90;;;;;;4994308;28;20052;-86
2023/04/25 07:47:35;;;;;;;4.37;2.47;;;9.10;99.90;;;;;;4992518;28;20068;-86
2023/04/25 07:50:01;;;;;;;5.83;2.50;;;9.20;99.90;;;;;;4991870;28;20026;-88
2023/04/25 07:52:26;;;;;;;6.20;2.77;;;9.30;99.90;;;;;;4992591;28;20049;-86
2023/04/25 07:54:52;;;;;;;7.57;2.43;;;9.40;99.90;;;;;;4987651;28;20952;-85
2023/04/25 07:57:19;;;;;;;5.33;2.60;;;9.50;99.90;;;;;;4987914;28;20079;-86
2023/04/25 07:59:45;;;;;;;6.97;2.80;;;9.80;99.90;;;;;;4989575;28;20023;-89
2023/04/25 08:02:10;;;;;;;4.20;2.67;;;10.00;99.90;;;;;;4987534;28;20035;-86
2023/04/25 08:04:36;;;;;;;5.60;2.80;;;10.10;99.90;;;;;;4989249;28;20419;-87
2023/04/25 08:07:01;;;;;;;5.57;2.60;;;10.30;99.90;;;;;;4997277;28;20037;-86
2023/04/25 08:09:27;;;;;;;3.47;2.50;;;10.30;99.90;;;;;;4996456;28;20038;-87
2023/04/25 08:11:53;;;;;;;3.60;2.50;;;10.30;99.90;;;;;;4986029;28;20506;-87
2023/04/25 08:14:18;;;;;;;3.93;2.30;;;10.30;99.90;;;;;;4987469;28;20029;-89
2023/04/25 08:16:44;;;;;;;6.10;2.53;;;10.20;99.90;;;;;;4986253;28;20636;-90
2023/04/25 08:19:10;;;;;;;3.60;2.03;;;10.10;99.90;;;;;;4980278;28;20592;-89
2023/04/25 08:21:36;;;;;;;4.07;2.00;;;10.10;99.90;;;;;;4983585;28;20104;-86
2023/04/25 08:24:02;;;;;;;6.60;2.10;;;10.00;99.90;;;;;;4986369;28;20494;-86
2023/04/25 08:26:28;;;;;;;4.37;1.90;;;9.90;99.90;;;;;;4986170;28;20080;-87
2023/04/25 08:28:54;;;;;;;4.37;2.10;;;10.00;99.90;;;;;;4991155;28;20042;-90
2023/04/25 08:31:19;;;;;;;3.30;1.80;;;10.10;99.90;;;;;;4986881;28;20469;-88
2023/04/25 08:33:45;;;;;;;5.70;2.20;;;10.20;99.90;;;;;;4989722;28;20081;-85
2023/04/25 08:36:11;;;;;;;4.07;2.00;;;10.30;99.90;;;;;;4989875;28;20045;-85
2023/04/25 08:38:36;;;;;;;4.57;2.20;;;10.30;99.90;;;;;;4992477;28;20439;-87
2023/04/25 08:41:02;;;;;;;5.47;1.90;;;10.30;99.90;;;;;;4990340;28;20211;-85
2023/04/25 08:43:30;;;;;;;3.70;2.17;;;10.60;99.90;;;;;;4993555;28;20030;-86
2023/04/25 08:45:59;;;;;;;4.00;2.00;;;10.70;99.90;;;;;;4990049;28;20122;-91
2023/04/25 08:48:27;;;;;;;4.83;2.20;;;10.90;99.90;;;;;;4988562;28;20061;-87
2023/04/25 08:50:55;;;;;;;5.40;2.20;;;11.10;99.90;;;;;;4988418;28;20034;-85
2023/04/25 08:53:26;;;;;;;3.47;1.50;;;11.20;99.90;;;;;;4987715;28;20026;-87
2023/04/25 08:55:55;;;;;;;4.70;1.70;;;11.40;99.90;;;;;;4987118;28;20547;-87
2023/04/25 08:58:21;;;;;;;5.17;1.60;;;11.50;99.90;;;;;;4987627;28;20026;-87
2023/04/25 09:00:48;;;;;;;3.47;1.73;;;11.60;99.90;;;;;;4984575;28;20048;-89
2023/04/25 09:03:14;;;;;;;3.78;1.70;;;11.70;99.90;;;;;;4987708;28;21054;-85
2023/04/25 09:05:41;;;;;;;3.27;1.60;;;11.70;99.90;;;;;;4986497;28;20042;-85
2023/04/25 09:08:07;;;;;;;6.25;1.85;;;11.60;99.90;;;;;;4986409;28;20034;-87
2023/04/25 09:10:33;;;;;;;4.53;1.70;;;11.50;99.90;;;;;;4985022;28;20057;-85
2023/04/25 09:13:06;;;;;;;3.42;1.50;;;11.50;99.90;;;;;;4984430;28;20045;-85
2023/04/25 09:15:33;;;;;;;2.90;1.67;;;11.60;99.90;;;;;;4986400;28;20113;-85
2023/04/25 09:17:59;;;;;;;2.75;1.60;;;11.60;99.90;;;;;;4983329;28;20506;-85
2023/04/25 09:20:25;;;;;;;124.00;58.58;;;11.80;99.90;;;;;;4983930;28;20042;-87
2023/04/25 09:23:05;;;;;;;8.30;2.95;;;12.10;99.90;;;;;;4982675;28;20763;-85
2023/04/25 09:25:42;;;;;;;2.17;1.50;;;12.40;99.90;;;;;;4984943;28;20034;-88
2023/04/25 09:28:08;;;;;;;3.00;1.75;;;12.40;99.90;;;;;;4985231;28;20026;-85
2023/04/25 09:30:35;;;;;;;3.58;1.65;;;12.40;99.90;;;;;;4984852;28;20513;-86
2023/04/25 09:33:06;;;;;;;3.45;1.65;;;12.30;99.90;;;;;;4982525;28;20070;-88
2023/04/25 09:35:37;;;;;;;5.13;1.80;;;12.40;99.90;;;;;;4986915;28;20080;-85
2023/04/25 09:38:08;;;;;;;6.35;1.98;;;12.30;99.90;;;;;;4987921;28;20044;-86
2023/04/25 09:40:34;;;;;;;2.50;1.52;;;12.20;99.90;;;;;;4988202;28;20030;-86
2023/04/25 09:43:00;;;;;;;3.67;1.85;;;12.20;99.90;;;;;;4990219;28;20042;-87
2023/04/25 09:45:25;;;;;;;2.85;1.70;;;12.20;99.90;;;;;;4994467;28;20530;-86
2023/04/25 09:47:57;;;;;;;2.75;1.60;;;12.20;99.90;;;;;;4995098;28;20070;-85
2023/04/25 09:50:24;;;;;;;4.80;1.85;;;12.00;99.90;;;;;;4992399;28;20042;-86
2023/04/25 09:53:10;;;;;;;3.63;1.90;;;12.00;99.90;;;;;;4993362;28;20046;-86
2023/04/25 09:55:37;;;;;;;3.47;1.80;;;12.00;99.90;;;;;;4991815;28;20048;-86
2023/04/25 09:58:08;;;;;;;4.57;1.52;;;12.30;99.90;;;;;;4990275;28;20050;-85
2023/04/25 10:00:35;;;;;;;7.32;1.80;;;12.80;99.90;;;;;;4989705;28;20115;-86
2023/04/25 10:03:05;;;;;;;3.97;1.52;;;13.50;99.90;;;;;;4990957;28;20022;-85
2023/04/25 10:05:35;;;;;;;4.10;1.73;;;13.80;99.90;;;;;;4993261;28;20034;-85
2023/04/25 10:08:03;;;;;;;4.72;1.70;;;13.90;99.90;;;;;;4993071;28;20094;-85
2023/04/25 10:10:32;;;;;;;3.65;1.45;;;13.80;99.90;;;;;;4991598;28;20528;-85
2023/04/25 10:12:58;;;;;;;4.68;1.55;;;13.60;99.90;;;;;;4990549;28;20053;-86
2023/04/25 10:15:25;;;;;;;2.38;1.35;;;13.20;99.90;;;;;;4990291;28;20037;-86
2023/04/25 10:17:50;;;;;;;5.20;1.40;;;12.90;99.90;;;;;;4990292;28;20121;-86
2023/04/25 10:20:16;;;;;;;5.47;1.75;;;12.70;99.90;;;;;;4991392;28;20030;-87
2023/04/25 10:22:44;;;;;;;4.22;1.45;;;12.40;99.90;;;;;;4991068;28;20026;-85
2023/04/25 10:25:11;;;;;;;3.53;2.15;;;12.20;99.90;;;;;;4993561;28;20037;-85
2023/04/25 10:27:36;;;;;;;2.92;1.40;;;12.00;99.90;;;;;;4995415;28;20109;-85
2023/04/25 10:30:11;;;;;;;2.55;1.63;;;11.80;99.90;;;;;;4994662;28;20581;-86
2023/04/25 10:32:36;;;;;;;4.20;1.50;;;11.60;99.90;;;;;;4993663;28;20176;-85
2023/04/25 10:35:23;;;;;;;4.97;1.70;;;11.50;99.90;;;;;;4993066;28;20742;-87
2023/04/25 10:38:04;;;;;;;5.38;1.83;;;11.40;99.90;;;;;;4994629;28;20065;-85
2023/04/25 10:40:31;;;;;;;4.88;1.90;;;11.30;99.90;;;;;;4998167;28;20052;-85
2023/04/25 10:43:38;;;;;;;1.98;1.27;;;11.40;99.90;;;;;;5000502;28;20033;-83
2023/04/25 10:46:23;;;;;;;3.72;1.50;;;11.30;99.90;;;;;;4999943;28;20034;-83
2023/04/25 10:48:51;;;;;;;2.20;1.60;;;10.90;99.90;;;;;;5000347;28;20030;-83
2023/04/25 10:51:34;;;;;;;3.03;1.50;;;10.60;99.90;;;;;;4998064;28;20037;-83
2023/04/25 10:54:05;;;;;;;2.10;1.47;;;10.40;99.90;;;;;;4995279;28;20032;-85
2023/04/25 10:56:44;;;;;;;4.03;2.00;;;10.10;99.90;;;;;;4996997;28;20030;-82
2023/04/25 10:59:15;;;;;;;4.30;1.77;;;9.70;99.90;;;;;;4997124;28;20057;-85
2023/04/25 11:01:45;;;;;;;4.80;1.73;;;9.50;99.90;;;;;;4994533;28;20053;-82
2023/04/25 11:04:31;;;;;;;4.10;1.60;;;9.30;99.90;;;;;;4996192;28;20037;-82
2023/04/25 11:07:09;;;;;;;2.23;1.50;;;9.20;99.90;;;;;;4993190;28;20040;-83
2023/04/25 11:09:37;;;;;;;1.67;1.47;;;9.20;99.90;;;;;;4997310;28;21503;-84
2023/04/25 11:12:03;;;;;;;3.00;1.30;;;9.20;99.90;;;;;;4999641;28;20042;-84
2023/04/25 11:14:29;;;;;;;6.57;1.80;;;9.30;99.90;;;;;;5000535;28;20052;-83
2023/04/25 11:16:56;;;;;;;4.97;1.73;;;9.40;99.90;;;;;;4997697;28;20087;-82
2023/04/25 11:19:23;;;;;;;3.03;1.40;;;9.50;99.90;;;;;;4999052;28;20104;-82
2023/04/25 11:21:49;;;;;;;4.10;1.80;;;9.60;99.90;;;;;;4999634;28;20038;-83
2023/04/25 11:24:16;;;;;;;6.20;1.73;;;9.70;99.90;;;;;;4999926;28;20703;-83
2023/04/25 11:26:43;;;;;;;2.40;1.67;;;9.90;99.90;;;;;;4994703;28;20038;-85
2023/04/25 11:29:09;;;;;;;3.80;1.70;;;10.10;99.90;;;;;;4998518;28;20054;-84
2023/04/25 11:31:34;;;;;;;3.00;1.50;;;10.30;99.90;;;;;;4998253;28;20034;-82
2023/04/25 11:34:00;;;;;;;4.27;1.40;;;10.50;99.90;;;;;;4997514;28;20105;-84
2023/04/25 11:36:26;;;;;;;2.83;1.43;;;10.60;99.90;;;;;;4994106;28;20326;-83
2023/04/25 11:38:52;;;;;;;1.77;1.37;;;10.60;99.90;;;;;;4996758;28;20061;-84
2023/04/25 11:41:20;;;;;;;2.67;1.37;;;10.40;99.90;;;;;;4994397;28;20069;-83
2023/04/25 11:43:45;;;;;;;2.90;1.37;;;9.90;99.90;;;;;;4995142;28;20030;-84
2023/04/25 11:46:11;;;;;;;2.57;1.50;;;9.50;99.90;;;;;;4994650;28;20070;-81
2023/04/25 11:48:41;;;;;;;2.50;1.40;;;9.10;99.90;;;;;;4994095;28;20043;-83
2023/04/25 11:51:07;;;;;;;3.10;1.40;;;8.90;99.90;;;;;;4995485;28;20076;-84
2023/04/25 11:53:32;;;;;;;2.00;1.20;;;8.50;99.90;;;;;;4997090;28;20057;-83
2023/04/25 11:55:58;;;;;;;1.37;1.07;;;8.40;99.90;;;;;;4994167;28;20079;-84
2023/04/25 11:58:23;;;;;;;1.60;1.17;;;8.30;99.90;;;;;;4996525;28;20096;-83
2023/04/25 12:00:49;;;;;;;1.43;1.10;;;8.30;99.90;;;;;;4996646;28;20128;-83
2023/04/25 12:03:15;;;;;;;2.47;1.27;;;8.40;99.90;;;;;;4996545;28;20046;-83
2023/04/25 12:05:40;;;;;;;1.63;1.00;;;8.30;99.90;;;;;;4994707;28;20045;-83
2023/04/25 12:08:16;;;;;;;2.77;1.90;;;8.30;99.90;;;;;;4984177;28;20038;-81
2023/04/25 12:10:46;;;;;;;2.53;1.20;;;8.40;99.90;;;;;;4986533;28;20081;-79
2023/04/25 12:13:27;;;;;;;1.83;1.30;;;8.30;99.90;;;;;;4991681;28;20087;-82
2023/04/25 12:15:56;;;;;;;1.50;1.17;;;8.20;99.90;;;;;;4987466;28;20113;-79
2023/04/25 12:18:25;;;;;;;4.37;1.40;;;8.20;99.90;;;;;;4980293;28;20116;-78
2023/04/25 12:20:53;;;;;;;1.67;1.20;;;8.30;99.90;;;;;;4984517;28;20136;-78
2023/04/25 12:23:26;;;;;;;2.07;1.40;;;8.40;99.90;;;;;;4985700;28;20509;-87
2023/04/25 12:25:51;;;;;;;2.37;1.20;;;8.40;99.90;;;;;;4992104;28;20411;-84
2023/04/25 12:28:27;;;;;;;2.63;1.60;;;8.30;99.90;;;;;;4995789;28;20035;-83
2023/04/25 12:30:53;;;;;;;;;;;8.40;99.90;;;;;;4993447;28;20038;-84
2023/04/25 12:33:18;;;;;;;3.13;1.53;;;8.40;99.90;;;;;;4992833;28;19936;-83
2023/04/25 12:35:44;;;;;;;3.97;1.90;;;8.40;99.90;;;;;;4992419;28;20038;-83
2023/04/25 12:38:10;;;;;;;1.67;1.40;;;8.30;99.90;;;;;;4991856;28;20430;-85
2023/04/25 12:40:36;;;;;;;2.17;1.40;;;8.50;99.90;;;;;;4990312;28;20090;-85
2023/04/25 12:43:01;;;;;;;1.60;1.40;;;8.50;99.90;;;;;;4991857;28;20079;-85
2023/04/25 12:45:27;;;;;;;3.23;1.43;;;8.50;99.90;;;;;;4993277;28;20125;-83
2023/04/25 12:47:52;;;;;;;3.07;1.30;;;8.50;99.90;;;;;;4999531;28;20974;-85
2023/04/25 12:50:18;;;;;;;2.93;1.80;;;8.40;99.90;;;;;;4999263;28;20521;-83
2023/04/25 12:52:43;;;;;;;3.73;1.53;;;8.40;99.90;;;;;;5000697;28;20064;-84
2023/04/25 12:55:09;;;;;;;3.87;1.43;;;8.40;99.90;;;;;;4993756;28;21055;-84